Погода Новое Завражьена 2 недели

Тверская область, Россия

25 мая-07 июня
  • 25мая
    Сегодня
    +11°
    +24°
    Ясно и безоблачно
    ВремяПогодаТемператураВлажностьДавлениеВетер, м/сВероятность осадков
    00:00Ясно и безоблачно+12°C58 %762 мм3.0 м/с2 %
    03:00Ясно и безоблачно+10°C62 %762 мм3.1 м/с2 %
    06:00Ясно и безоблачно+12°C66 %762 мм2.9 м/с2 %
    09:00Небольшая облачность+19°C48 %762 мм3.1 м/с2 %
    12:00Ясно и безоблачно+22°C32 %760 мм3.9 м/с2 %
    15:00Ясно и безоблачно+24°C30 %759 мм4.3 м/с2 %
    18:00Ясно и безоблачно+24°C35 %758 мм3.9 м/с2 %
    21:00Ясно и безоблачно+17°C55 %757 мм2.5 м/с2 %
  • 26мая
    Воскресенье
    +8°
    +23°
    Практически безоблачно
    ВремяПогодаТемператураВлажностьДавлениеВетер, м/сВероятность осадков
    00:00Ясно и безоблачно+13°C64 %757 мм3.0 м/с2 %
    03:00Ясно и безоблачно+12°C77 %757 мм2.4 м/с2 %
    06:00Практически безоблачно+15°C77 %757 мм1.9 м/с1 %
    09:00Облачно с прояснениями+19°C67 %758 мм1.1 м/с7 %
    12:00Пасмурно, ливень+20°C69 %758 мм0.8 м/с38 %
    15:00Практически безоблачно+23°C50 %758 мм3.2 м/с33 %
    18:00Небольшая облачность+22°C38 %758 мм4.4 м/с21 %
    21:00Ясно и безоблачно+16°C42 %759 мм3.5 м/с3 %
  • 27мая
    Понедельник
    +8°
    +24°
    Практически безоблачно
    ВремяПогодаТемператураВлажностьДавлениеВетер, м/сВероятность осадков
    00:00Ясно и безоблачно+12°C52 %760 мм3.2 м/с2 %
    03:00Ясно и безоблачно+9°C64 %760 мм2.5 м/с2 %
    06:00Ясно и безоблачно+10°C67 %761 мм2.3 м/с2 %
    09:00Ясно и безоблачно+18°C52 %761 мм2.5 м/с2 %
    12:00Ясно и безоблачно+21°C38 %761 мм2.4 м/с2 %
    15:00Практически безоблачно+23°C34 %760 мм1.6 м/с2 %
    18:00Ясно и безоблачно+23°C36 %759 мм1.3 м/с2 %
    21:00Ясно и безоблачно+17°C58 %758 мм2.2 м/с2 %
  • 28мая
    Вторник
    +12°
    +26°
    Небольшая облачность
    ВремяПогодаТемператураВлажностьДавлениеВетер, м/сВероятность осадков
    00:00Ясно и безоблачно+12°C69 %758 мм1.9 м/с2 %
    03:00Ясно и безоблачно+9°C82 %757 мм2.1 м/с2 %
    06:00Ясно и безоблачно+12°C74 %757 мм1.6 м/с2 %
    09:00Ясно и безоблачно+20°C59 %757 мм1.2 м/с2 %
    12:00Практически безоблачно+25°C46 %757 мм1.9 м/с6 %
    15:00Небольшая облачность+25°C44 %756 мм3.4 м/с11 %
    18:00Ясно и безоблачно+26°C43 %754 мм1.9 м/с14 %
    21:00Облачно с прояснениями+20°C61 %754 мм2.0 м/с3 %
  • 29мая
    Среда
    +13°
    +27°
    Практически безоблачно
    ВремяПогодаТемператураВлажностьДавлениеВетер, м/сВероятность осадков
    00:00Ясно и безоблачно+16°C62 %754 мм2.6 м/с2 %
    03:00Небольшая облачность+13°C75 %753 мм1.9 м/с2 %
    06:00Ясно и безоблачно+16°C71 %753 мм1.9 м/с2 %
    09:00Практически безоблачно+23°C59 %753 мм1.5 м/с4 %
    12:00Ясно и безоблачно+26°C44 %752 мм2.3 м/с38 %
    15:00Практически безоблачно+26°C44 %751 мм2.0 м/с32 %
    18:00Небольшая облачность+26°C46 %751 мм1.9 м/с31 %
    21:00Практически безоблачно+21°C70 %751 мм1.2 м/с15 %
Мы используем cookies
Соглашаюсь